createdAt,value
2023-01-01T00:02:41.363Z,66.99
2023-01-01T00:06:57.644Z,67.72
2023-01-01T00:11:14.172Z,67.16
2023-01-01T00:15:30.370Z,67.93
2023-01-01T00:19:46.518Z,67.65
2023-01-01T00:24:02.804Z,68.42
2023-01-01T00:28:18.951Z,67.97
2023-01-01T00:32:35.216Z,67.38
2023-01-01T00:36:51.453Z,67.29
2023-01-01T00:41:07.636Z,67.91
2023-01-01T00:45:23.908Z,68.06
2023-01-01T00:49:40.119Z,68.51
2023-01-01T00:53:56.302Z,67.96
2023-01-01T00:58:12.541Z,68.05
2023-01-01T01:02:31.630Z,68.00
2023-01-01T01:06:48.008Z,67.64
2023-01-01T01:11:12.777Z,68.17
2023-01-01T01:15:28.944Z,67.29
2023-01-01T01:19:45.101Z,68.27
2023-01-01T01:24:03.587Z,68.32
2023-01-01T01:28:19.683Z,68.50
2023-01-01T01:32:35.838Z,68.27
2023-01-01T01:36:53.361Z,67.51
2023-01-01T01:41:25.707Z,67.36
2023-01-01T01:45:43.305Z,69.90
2023-01-01T01:50:06.348Z,68.91
2023-01-01T01:54:24.564Z,67.96
2023-01-01T01:58:40.845Z,68.42
2023-01-01T02:03:04.833Z,67.76
2023-01-01T02:07:22.749Z,67.59
2023-01-01T02:11:38.927Z,67.92
2023-01-01T02:16:12.431Z,68.09
2023-01-01T02:20:47.987Z,68.22
2023-01-01T02:25:23.937Z,68.28
2023-01-01T02:29:56.749Z,67.96
2023-01-01T02:34:15.184Z,68.79
2023-01-01T02:38:44.142Z,68.04
2023-01-01T02:43:01.958Z,67.20
2023-01-01T02:47:20.331Z,67.28
2023-01-01T02:51:38.422Z,67.89
2023-01-01T02:56:06.591Z,68.23
2023-01-01T03:00:29.766Z,69.54
2023-01-01T03:04:54.239Z,68.95
2023-01-01T03:10:03.179Z,69.03
2023-01-01T03:14:46.162Z,68.91
2023-01-01T03:19:29.400Z,68.48
2023-01-01T03:23:50.330Z,67.67
2023-01-01T03:28:11.654Z,68.48
2023-01-01T03:33:08.211Z,68.05
2023-01-01T03:37:28.096Z,68.24
2023-01-01T03:42:08.623Z,68.54
2023-01-01T03:46:28.485Z,67.92
2023-01-01T03:51:18.165Z,68.14
2023-01-01T03:55:43.290Z,67.52
2023-01-01T04:00:05.227Z,68.48
2023-01-01T04:04:21.578Z,68.38
2023-01-01T04:08:38.757Z,67.43
2023-01-01T04:12:57.167Z,67.51
2023-01-01T04:17:14.200Z,67.38
2023-01-01T04:21:30.425Z,67.84
2023-01-01T04:25:47.494Z,67.88
2023-01-01T04:30:05.099Z,67.87
2023-01-01T04:34:21.371Z,68.00
2023-01-01T04:38:38.437Z,67.85
2023-01-01T04:42:55.096Z,67.95
2023-01-01T04:47:11.320Z,68.09
2023-01-01T04:51:27.500Z,67.43
2023-01-01T04:55:43.784Z,68.18
2023-01-01T04:59:59.963Z,69.02
2023-01-01T05:04:16.904Z,70.99
2023-01-01T05:08:34.416Z,70.12
2023-01-01T05:12:50.755Z,69.31
2023-01-01T05:17:07.067Z,69.82
2023-01-01T05:21:34.921Z,70.16
2023-01-01T05:25:51.122Z,71.28
2023-01-01T05:30:08.037Z,69.63
2023-01-01T05:38:45.438Z,70.05
2023-01-01T05:43:04.298Z,69.69
2023-01-01T05:47:22.543Z,70.22
2023-01-01T05:55:54.747Z,70.74
2023-01-01T06:00:13.372Z,70.16
2023-01-01T06:04:30.742Z,69.95
2023-01-01T06:09:13.576Z,70.09
2023-01-01T06:13:30.637Z,70.05
2023-01-01T06:17:47.306Z,70.97
2023-01-01T06:22:03.492Z,70.67
2023-01-01T06:26:24.978Z,70.37
2023-01-01T06:30:41.252Z,70.02
2023-01-01T06:34:57.504Z,69.97
2023-01-01T06:39:13.812Z,69.61
2023-01-01T06:43:31.934Z,68.33
2023-01-01T06:47:48.235Z,68.86
2023-01-01T06:52:04.517Z,68.52
2023-01-01T06:56:21.770Z,68.87
2023-01-01T07:00:38.027Z,68.52
2023-01-01T07:04:54.230Z,69.29
2023-01-01T07:09:10.580Z,69.22
2023-01-01T07:13:27.791Z,69.05
2023-01-01T07:17:43.977Z,68.98
2023-01-01T07:22:00.358Z,69.25
2023-01-01T07:26:16.681Z,69.04
2023-01-01T07:30:32.931Z,69.28
2023-01-01T07:34:50.918Z,69.37
2023-01-01T07:39:07.249Z,70.39
2023-01-01T07:43:23.558Z,69.79
2023-01-01T07:47:39.983Z,69.78
2023-01-01T07:51:56.205Z,68.86
2023-01-01T07:56:12.596Z,69.50
2023-01-01T08:00:29.317Z,69.50
2023-01-01T08:04:46.671Z,70.59
2023-01-01T08:09:02.929Z,71.73
2023-01-01T08:13:19.228Z,70.55
2023-01-01T08:17:36.308Z,68.87
2023-01-01T08:21:54.964Z,68.65
2023-01-01T08:26:18.935Z,68.39
2023-01-01T08:30:35.125Z,67.73
2023-01-01T08:34:51.339Z,68.33
2023-01-01T08:39:08.318Z,68.06
2023-01-01T08:43:24.541Z,68.58
2023-01-01T08:47:40.774Z,67.86
2023-01-01T08:51:57.022Z,68.63
2023-01-01T08:56:16.120Z,69.54
2023-01-01T09:00:32.397Z,69.89
2023-01-01T09:04:48.782Z,70.40
2023-01-01T09:09:04.984Z,70.18
2023-01-01T09:13:23.006Z,70.56
2023-01-01T09:17:39.181Z,69.36
2023-01-01T09:21:55.473Z,69.58
2023-01-01T09:26:11.807Z,69.55
2023-01-01T09:30:28.339Z,68.58
2023-01-01T09:34:51.955Z,68.96
2023-01-01T09:39:13.336Z,68.91
2023-01-01T09:44:00.417Z,69.55
2023-01-01T09:48:16.921Z,69.21
2023-01-01T09:53:03.374Z,68.49
2023-01-01T09:57:20.558Z,69.17
2023-01-01T10:01:42.978Z,69.23
2023-01-01T10:06:02.091Z,69.87
2023-01-01T10:10:27.350Z,69.00
2023-01-01T10:14:47.532Z,68.15
2023-01-01T10:19:36.949Z,69.17
2023-01-01T10:24:03.908Z,67.62
2023-01-01T10:28:30.636Z,67.62
2023-01-01T10:32:50.067Z,68.83
2023-01-01T10:37:10.859Z,67.99
2023-01-01T10:41:27.091Z,68.30
2023-01-01T10:45:48.918Z,68.47
2023-01-01T10:50:08.067Z,67.90
2023-01-01T10:54:38.973Z,67.79
2023-01-01T10:58:57.105Z,67.52
2023-01-01T11:03:22.901Z,67.94
2023-01-01T11:07:41.465Z,67.06
2023-01-01T11:12:15.122Z,66.18
2023-01-01T11:16:39.403Z,66.84
2023-01-01T11:20:59.730Z,69.03
2023-01-01T11:25:20.937Z,69.08
2023-01-01T11:29:37.161Z,69.57
2023-01-01T11:33:55.372Z,68.20
2023-01-01T11:38:29.249Z,67.76
2023-01-01T11:42:58.542Z,67.95
2023-01-01T11:47:32.218Z,67.74
2023-01-01T11:51:48.493Z,67.15
2023-01-01T11:56:16.458Z,67.13
2023-01-01T12:00:35.173Z,68.09
2023-01-01T12:04:57.085Z,67.01
2023-01-01T12:09:25.395Z,67.26
2023-01-01T12:14:00.780Z,67.24
2023-01-01T12:18:17.844Z,66.79
2023-01-01T12:22:34.195Z,66.94
2023-01-01T12:27:11.565Z,66.85
2023-01-01T12:31:57.147Z,66.99
2023-01-01T12:36:38.408Z,67.94
2023-01-01T12:41:19.446Z,66.88
2023-01-01T12:45:57.116Z,67.23
2023-01-01T12:50:36.323Z,67.38
2023-01-01T12:55:25.312Z,67.23
2023-01-01T12:59:47.722Z,67.95
2023-01-01T13:04:06.965Z,66.84
2023-01-01T13:08:23.438Z,67.76
2023-01-01T13:12:39.919Z,68.08
2023-01-01T13:16:57.507Z,67.51
2023-01-01T13:21:23.037Z,67.89
2023-01-01T13:25:39.243Z,66.98
2023-01-01T13:29:55.496Z,66.57
2023-01-01T13:34:38.960Z,67.09
2023-01-01T13:38:59.681Z,67.06
2023-01-01T13:43:20.231Z,66.91
2023-01-01T13:48:09.022Z,66.30
2023-01-01T13:52:49.184Z,66.02
2023-01-01T13:57:14.507Z,66.52
2023-01-01T14:01:51.639Z,69.58
2023-01-01T14:06:17.363Z,68.46
2023-01-01T14:10:35.492Z,69.09
2023-01-01T14:14:51.790Z,68.74
2023-01-01T14:19:14.565Z,68.10
2023-01-01T14:23:39.448Z,69.55
2023-01-01T14:27:57.473Z,68.96
2023-01-01T14:32:16.429Z,68.77
2023-01-01T14:36:33.057Z,69.21
2023-01-01T14:40:49.282Z,69.92
2023-01-01T14:45:08.289Z,68.60
2023-01-01T14:49:33.931Z,68.67
2023-01-01T14:53:51.322Z,68.33
2023-01-01T14:58:11.572Z,67.62
2023-01-01T15:02:37.479Z,68.83
2023-01-01T15:07:02.968Z,68.24
2023-01-01T15:11:24.973Z,68.73
2023-01-01T15:15:47.474Z,69.11
2023-01-01T15:20:06.617Z,68.92
2023-01-01T15:24:26.350Z,69.39
2023-01-01T15:28:43.279Z,69.19
2023-01-01T15:33:08.616Z,67.94
2023-01-01T15:37:33.452Z,68.02
2023-01-01T15:41:52.052Z,67.94
2023-01-01T15:46:26.109Z,67.91
2023-01-01T15:50:51.111Z,67.77
2023-01-01T15:55:07.690Z,67.47
2023-01-01T15:59:27.962Z,67.74
2023-01-01T16:03:45.775Z,67.45
2023-01-01T16:08:05.559Z,67.49
2023-01-01T16:12:22.282Z,68.22
2023-01-01T16:16:39.963Z,67.77
2023-01-01T16:20:56.659Z,68.12
2023-01-01T16:25:16.891Z,67.72
2023-01-01T16:29:33.199Z,67.48
2023-01-01T16:33:53.494Z,67.05
2023-01-01T16:38:09.822Z,67.53
2023-01-01T16:42:26.214Z,67.10
2023-01-01T16:46:42.832Z,66.59
2023-01-01T16:50:59.097Z,67.17
2023-01-01T16:55:15.533Z,67.01
2023-01-01T16:59:31.818Z,66.72
2023-01-01T17:03:48.396Z,67.16
2023-01-01T17:08:04.822Z,66.92
2023-01-01T17:12:20.993Z,67.43
2023-01-01T17:16:39.831Z,67.50
2023-01-01T17:20:56.565Z,67.55
2023-01-01T17:25:14.040Z,67.66
2023-01-01T17:29:30.560Z,67.68
2023-01-01T17:33:47.465Z,67.19
2023-01-01T17:38:03.685Z,67.43
2023-01-01T17:42:23.099Z,67.06
2023-01-01T17:46:40.113Z,66.38
2023-01-01T17:50:56.941Z,67.08
2023-01-01T17:55:13.798Z,66.60
2023-01-01T17:59:45.411Z,67.82
2023-01-01T18:04:06.805Z,67.70
2023-01-01T18:08:23.052Z,67.68
2023-01-01T18:12:39.290Z,67.41
2023-01-01T18:16:55.548Z,67.20
2023-01-01T18:21:23.350Z,68.07
2023-01-01T18:25:39.932Z,67.18
2023-01-01T18:29:58.366Z,66.78
2023-01-01T18:34:15.142Z,67.37
2023-01-01T18:38:31.821Z,66.76
2023-01-01T18:43:20.328Z,67.64
2023-01-01T18:47:36.585Z,67.73
2023-01-01T18:51:57.396Z,67.77
2023-01-01T18:56:14.945Z,67.76
2023-01-01T19:00:32.078Z,67.71
2023-01-01T19:04:49.783Z,68.28
2023-01-01T19:09:25.633Z,67.74
2023-01-01T19:13:41.841Z,68.40
2023-01-01T19:17:58.093Z,67.82
2023-01-01T19:22:32.918Z,67.41
2023-01-01T19:26:53.239Z,67.91
2023-01-01T19:31:09.817Z,67.33
2023-01-01T19:35:26.172Z,66.97
2023-01-01T19:39:42.848Z,67.01
2023-01-01T19:43:59.059Z,67.46
2023-01-01T19:48:15.475Z,66.77
2023-01-01T19:52:31.782Z,66.65
2023-01-01T19:56:48.915Z,67.04
2023-01-01T20:01:05.346Z,67.28
2023-01-01T20:05:21.958Z,67.27
2023-01-01T20:09:38.248Z,66.86
2023-01-01T20:13:55.041Z,66.38
2023-01-01T20:18:17.068Z,66.77
2023-01-01T20:22:33.286Z,67.09
2023-01-01T20:26:52.484Z,67.90
2023-01-01T20:31:08.835Z,67.09
2023-01-01T20:35:50.764Z,67.01
2023-01-01T20:40:11.139Z,67.59
2023-01-01T20:44:27.581Z,67.32
2023-01-01T20:48:43.806Z,67.64
2023-01-01T20:53:00.099Z,67.01
2023-01-01T20:57:16.541Z,66.55
2023-01-01T21:01:33.132Z,66.88
2023-01-01T21:05:49.471Z,66.95
2023-01-01T21:10:06.323Z,69.29
2023-01-01T21:14:25.518Z,67.77
2023-01-01T21:18:42.064Z,67.73
2023-01-01T21:22:59.840Z,67.47
2023-01-01T21:27:24.965Z,67.16
2023-01-01T21:31:43.093Z,67.55
2023-01-01T21:36:02.555Z,66.85
2023-01-01T21:40:39.888Z,66.43
2023-01-01T21:44:58.012Z,66.90
2023-01-01T21:49:29.608Z,67.11
2023-01-01T21:53:45.942Z,66.08
2023-01-01T21:58:22.936Z,66.20
2023-01-01T22:02:39.970Z,66.39
2023-01-01T22:07:01.176Z,66.80
2023-01-01T22:11:27.134Z,66.79
2023-01-01T22:15:44.314Z,66.83
2023-01-01T22:20:23.116Z,66.40
2023-01-01T22:24:39.383Z,65.78
2023-01-01T22:29:00.142Z,65.92
2023-01-01T22:33:26.898Z,65.98
2023-01-01T22:37:43.151Z,66.76
2023-01-01T22:41:59.358Z,67.62
2023-01-01T22:46:38.450Z,66.68
2023-01-01T22:50:56.544Z,67.02
2023-01-01T22:55:12.824Z,67.30
2023-01-01T22:59:29.083Z,67.32
2023-01-01T23:03:45.413Z,66.57
2023-01-01T23:08:01.755Z,66.68
2023-01-01T23:12:17.911Z,66.30
2023-01-01T23:16:34.432Z,66.49
2023-01-01T23:20:51.075Z,67.54
2023-01-01T23:25:10.107Z,67.22
2023-01-01T23:29:27.857Z,67.07
2023-01-01T23:33:51.793Z,68.35
2023-01-01T23:38:11.223Z,68.38
2023-01-01T23:42:27.506Z,67.93
2023-01-01T23:46:44.198Z,68.93
2023-01-01T23:51:00.536Z,68.16
2023-01-01T23:55:16.905Z,68.56
2023-01-01T23:59:33.092Z,68.12
